createdAt,value
2023-01-25T00:00:20.307Z,59.88
2023-01-25T00:01:36.699Z,57.25
2023-01-25T00:02:42.446Z,61.69
2023-01-25T00:03:48.047Z,58.60
2023-01-25T00:05:01.111Z,56.69
2023-01-25T00:06:13.403Z,62.00
2023-01-25T00:07:17.885Z,56.93
2023-01-25T00:08:25.740Z,54.44
2023-01-25T00:09:32.948Z,56.00
2023-01-25T00:10:37.075Z,56.75
2023-01-25T00:11:42.758Z,55.50
2023-01-25T00:12:47.181Z,60.60
2023-01-25T00:13:56.185Z,55.63
2023-01-25T00:15:03.034Z,56.80
2023-01-25T00:16:09.133Z,59.44
2023-01-25T00:18:22.095Z,56.06
2023-01-25T00:19:30.821Z,62.50
2023-01-25T00:20:33.639Z,57.07
2023-01-25T00:21:39.870Z,58.25
2023-01-25T00:22:53.933Z,57.53
2023-01-25T00:23:59.658Z,59.87
2023-01-25T00:25:09.951Z,59.13
2023-01-25T00:26:11.804Z,54.53
2023-01-25T00:27:16.148Z,61.69
2023-01-25T00:28:37.751Z,58.38
2023-01-25T00:29:34.116Z,60.47
2023-01-25T00:30:44.748Z,60.31
2023-01-25T00:32:09.781Z,55.87
2023-01-25T00:33:22.538Z,61.37
2023-01-25T00:34:32.205Z,59.13
2023-01-25T00:37:46.373Z,57.00
2023-01-25T00:38:52.156Z,59.00
2023-01-25T00:39:58.678Z,56.63
2023-01-25T00:41:04.105Z,52.13
2023-01-25T00:42:12.436Z,57.13
2023-01-25T00:43:16.575Z,54.88
2023-01-25T00:44:20.882Z,46.40
2023-01-25T00:45:27.301Z,57.81
2023-01-25T00:46:31.597Z,60.93
2023-01-25T00:47:35.742Z,55.25
2023-01-25T00:48:39.808Z,57.50
2023-01-25T00:49:47.731Z,60.27
2023-01-25T00:52:02.104Z,55.94
2023-01-25T00:53:06.326Z,54.25
2023-01-25T00:54:17.407Z,54.63
2023-01-25T00:56:51.161Z,53.93
2023-01-25T00:58:09.699Z,53.27
2023-01-25T00:59:05.745Z,59.00
2023-01-25T01:00:12.282Z,62.00
2023-01-25T01:01:29.318Z,51.73
2023-01-25T01:02:25.400Z,55.67
2023-01-25T01:03:31.248Z,60.38
2023-01-25T01:04:44.085Z,59.25
2023-01-25T01:05:45.555Z,57.81
2023-01-25T01:06:53.157Z,58.87
2023-01-25T01:08:00.456Z,52.88
2023-01-25T01:10:44.817Z,49.88
2023-01-25T01:11:41.938Z,59.13
2023-01-25T01:12:50.057Z,61.13
2023-01-25T01:13:58.944Z,59.07
2023-01-25T01:15:03.200Z,55.81
2023-01-25T01:16:16.514Z,58.56
2023-01-25T01:17:20.664Z,59.60
2023-01-25T01:18:31.392Z,57.94
2023-01-25T01:19:32.192Z,52.00
2023-01-25T01:20:39.463Z,56.50
2023-01-25T01:21:47.220Z,55.88
2023-01-25T01:23:16.270Z,57.25
2023-01-25T01:24:02.943Z,58.33
2023-01-25T01:25:10.512Z,53.94
2023-01-25T01:26:18.322Z,60.73
2023-01-25T01:27:24.120Z,55.94
2023-01-25T01:28:35.301Z,56.73
2023-01-25T01:29:36.504Z,59.40
2023-01-25T01:30:42.357Z,56.94
2023-01-25T01:31:52.492Z,58.53
2023-01-25T01:32:58.426Z,58.81
2023-01-25T01:34:04.920Z,58.69
2023-01-25T01:35:09.872Z,58.69
2023-01-25T01:36:19.902Z,56.06
2023-01-25T01:37:24.077Z,58.87
2023-01-25T01:38:30.134Z,58.87
2023-01-25T01:39:37.042Z,58.25
2023-01-25T01:40:46.375Z,48.93
2023-01-25T01:41:50.559Z,50.94
2023-01-25T01:43:08.421Z,46.31
2023-01-25T01:44:22.037Z,47.88
2023-01-25T01:45:50.260Z,46.50
2023-01-25T01:46:59.107Z,54.47
2023-01-25T01:48:03.374Z,62.06
2023-01-25T01:49:19.396Z,61.67
2023-01-25T01:50:39.917Z,58.94
2023-01-25T01:51:42.714Z,58.69
2023-01-25T01:52:47.026Z,50.67
2023-01-25T01:53:58.363Z,55.50
2023-01-25T01:55:08.776Z,60.67
2023-01-25T01:56:16.130Z,59.20
2023-01-25T01:59:09.822Z,60.06
2023-01-25T03:56:41.879Z,55.31
2023-01-25T03:57:38.750Z,57.33
2023-01-25T03:58:54.937Z,52.00
2023-01-25T04:01:53.411Z,51.37
2023-01-25T04:02:47.315Z,52.38
2023-01-25T04:03:51.431Z,52.40
2023-01-25T04:04:56.916Z,51.25
2023-01-25T04:06:02.621Z,55.94
2023-01-25T04:07:06.653Z,50.69
2023-01-25T04:08:12.186Z,57.38
2023-01-25T04:09:16.413Z,59.73
2023-01-25T04:10:22.108Z,53.25
2023-01-25T04:11:31.254Z,60.56
2023-01-25T04:12:32.421Z,54.31
2023-01-25T04:13:38.313Z,51.73
2023-01-25T04:14:44.755Z,58.47
2023-01-25T04:15:48.720Z,58.20
2023-01-25T04:16:52.889Z,53.13
2023-01-25T04:17:58.438Z,58.63
2023-01-25T04:19:04.053Z,55.87
2023-01-25T04:20:08.932Z,55.50
2023-01-25T04:21:13.090Z,57.87
2023-01-25T04:22:19.347Z,56.69
2023-01-25T04:23:25.108Z,55.27
2023-01-25T04:24:35.885Z,59.60
2023-01-25T04:25:35.178Z,53.53
2023-01-25T04:26:40.245Z,57.75
2023-01-25T04:27:45.874Z,52.93
2023-01-25T04:29:08.122Z,57.44
2023-01-25T04:30:03.190Z,54.31
2023-01-25T04:31:08.784Z,49.27
2023-01-25T04:32:14.507Z,50.80
2023-01-25T04:33:25.159Z,57.93
2023-01-25T04:34:28.494Z,54.33
2023-01-25T04:35:31.791Z,56.00
2023-01-25T04:36:36.265Z,53.56
2023-01-25T04:37:40.363Z,55.73
2023-01-25T04:38:44.481Z,60.87
2023-01-25T04:39:50.141Z,57.20
2023-01-25T04:40:55.862Z,62.19
2023-01-25T04:42:01.371Z,61.13
2023-01-25T04:43:07.162Z,62.07
2023-01-25T04:44:12.933Z,59.73
2023-01-25T04:45:18.674Z,61.81
2023-01-25T04:46:29.322Z,62.50
2023-01-25T04:47:30.040Z,58.06
2023-01-25T04:48:36.832Z,59.80
2023-01-25T04:49:39.926Z,62.88
2023-01-25T04:51:01.931Z,57.19
2023-01-25T04:52:02.234Z,56.31
2023-01-25T04:53:21.855Z,68.67
2023-01-25T04:54:22.755Z,65.67
2023-01-25T04:55:32.759Z,64.25
2023-01-25T04:56:38.912Z,66.87
2023-01-25T04:57:46.314Z,66.56
2023-01-25T04:58:55.851Z,66.07
2023-01-25T04:59:59.965Z,64.07
2023-01-25T05:01:07.364Z,62.07
2023-01-25T05:02:11.741Z,58.87
2023-01-25T05:03:21.507Z,58.38
2023-01-25T05:04:25.577Z,61.69
2023-01-25T05:05:29.607Z,59.80
2023-01-25T05:06:43.217Z,58.75
2023-01-25T05:07:45.850Z,54.87
2023-01-25T05:09:56.948Z,61.50
2023-01-25T05:10:01.812Z,62.40
2023-01-25T05:11:08.045Z,60.20
2023-01-25T05:12:13.506Z,63.81
2023-01-25T05:13:21.969Z,63.27
2023-01-25T05:14:27.537Z,53.69
2023-01-25T05:15:33.739Z,62.80
2023-01-25T05:16:38.945Z,61.20
2023-01-25T05:17:48.145Z,58.13
2023-01-25T05:18:55.162Z,60.38
2023-01-25T05:20:02.341Z,66.67
2023-01-25T05:21:08.141Z,65.44
2023-01-25T05:22:17.172Z,63.00
2023-01-25T05:24:48.893Z,68.40
2023-01-25T05:26:09.384Z,68.44
2023-01-25T05:27:23.752Z,70.60
2023-01-25T05:28:26.184Z,73.00
2023-01-25T05:29:37.532Z,76.50
2023-01-25T05:30:43.188Z,73.00
2023-01-25T05:31:50.411Z,76.40
2023-01-25T05:33:00.975Z,71.56
2023-01-25T05:34:03.766Z,71.50
2023-01-25T05:35:16.509Z,76.00
2023-01-25T05:36:20.884Z,76.50
2023-01-25T05:37:27.156Z,72.62
2023-01-25T05:38:32.750Z,76.93
2023-01-25T05:39:46.049Z,66.07
2023-01-25T05:40:54.809Z,70.12
2023-01-25T05:42:12.956Z,68.62
2023-01-25T05:43:16.795Z,68.87
2023-01-25T05:44:22.377Z,67.81
2023-01-25T05:45:28.407Z,69.06
2023-01-25T05:46:35.416Z,58.80
2023-01-25T05:47:39.503Z,66.94
2023-01-25T05:48:43.563Z,65.53
2023-01-25T05:49:47.609Z,63.00
2023-01-25T05:50:51.747Z,61.88
2023-01-25T05:51:55.860Z,61.47
2023-01-25T05:53:03.648Z,63.81
2023-01-25T05:54:12.883Z,67.00
2023-01-25T05:55:22.663Z,64.87
2023-01-25T05:56:29.849Z,66.27
2023-01-25T05:57:34.077Z,62.13
2023-01-25T05:58:41.646Z,64.60
2023-01-25T05:59:47.128Z,62.53
2023-01-25T06:00:56.388Z,63.00
2023-01-25T06:02:00.037Z,61.87
2023-01-25T06:03:04.476Z,58.67
2023-01-25T06:04:12.551Z,62.31
2023-01-25T06:05:24.265Z,58.53
2023-01-25T06:06:27.729Z,63.53
2023-01-25T06:07:36.955Z,60.07
2023-01-25T06:08:45.767Z,63.67
2023-01-25T06:09:49.812Z,64.93
2023-01-25T06:10:54.029Z,64.67
2023-01-25T06:12:00.770Z,65.93
2023-01-25T06:13:10.059Z,63.75
2023-01-25T06:14:19.447Z,62.93
2023-01-25T06:15:25.194Z,62.56
2023-01-25T06:16:29.425Z,63.31
2023-01-25T06:17:34.997Z,65.00
2023-01-25T06:20:34.527Z,61.47
2023-01-25T06:21:38.649Z,63.00
2023-01-25T06:22:47.256Z,63.19
2023-01-25T06:23:55.141Z,59.56
2023-01-25T06:25:05.146Z,58.33
2023-01-25T06:26:09.467Z,59.19
2023-01-25T06:27:16.906Z,57.20
2023-01-25T06:28:22.651Z,63.27
2023-01-25T06:29:29.483Z,59.13
2023-01-25T06:30:39.529Z,59.69
2023-01-25T06:32:21.642Z,63.13
2023-01-25T06:33:01.706Z,59.53
2023-01-25T06:34:08.803Z,60.25
2023-01-25T06:35:21.155Z,60.38
2023-01-25T06:36:22.407Z,63.20
2023-01-25T06:37:51.430Z,63.13
2023-01-25T06:38:34.255Z,64.50
2023-01-25T06:39:38.349Z,64.93
2023-01-25T06:40:42.384Z,58.53
2023-01-25T06:41:48.289Z,64.19
2023-01-25T06:42:53.818Z,65.13
2023-01-25T06:44:30.609Z,60.67
2023-01-25T06:45:18.847Z,69.25
2023-01-25T06:46:27.310Z,69.56
2023-01-25T06:47:22.269Z,63.81
2023-01-25T06:48:32.629Z,63.06
2023-01-25T06:49:34.433Z,53.93
2023-01-25T06:50:38.507Z,59.80
2023-01-25T06:51:46.565Z,59.53
2023-01-25T06:52:57.775Z,60.93
2023-01-25T06:54:05.451Z,64.37
2023-01-25T06:55:10.204Z,63.93
2023-01-25T06:56:36.714Z,64.94
2023-01-25T06:57:35.488Z,61.93
2023-01-25T06:58:49.613Z,58.94
2023-01-25T07:00:09.944Z,62.13
2023-01-25T07:01:31.961Z,61.75
2023-01-25T07:03:04.995Z,67.25
2023-01-25T07:03:42.424Z,63.38
2023-01-25T07:04:51.858Z,66.27
2023-01-25T07:06:11.352Z,65.40
2023-01-25T07:07:20.291Z,61.53
2023-01-25T07:08:26.852Z,65.00
2023-01-25T07:09:34.194Z,63.53
2023-01-25T07:11:29.079Z,63.38
2023-01-25T07:11:52.329Z,62.60
2023-01-25T07:13:00.800Z,60.56
2023-01-25T07:16:44.113Z,60.63
2023-01-25T07:17:45.025Z,62.94
2023-01-25T07:19:09.418Z,64.12
2023-01-25T07:20:26.431Z,61.00
2023-01-25T07:21:44.300Z,63.00
2023-01-25T07:25:55.383Z,58.56
2023-01-25T07:26:58.446Z,57.62
2023-01-25T07:28:02.599Z,59.44
2023-01-25T07:29:16.301Z,58.81
2023-01-25T07:30:20.622Z,62.69
2023-01-25T07:31:25.280Z,62.06
2023-01-25T07:32:30.882Z,62.47
2023-01-25T07:33:36.471Z,59.53
2023-01-25T07:34:40.688Z,59.63
2023-01-25T07:36:54.855Z,60.94
2023-01-25T07:37:25.163Z,53.31
2023-01-25T07:37:59.615Z,61.37
2023-01-25T07:39:05.485Z,58.38
2023-01-25T07:40:13.705Z,63.20
2023-01-25T07:41:22.696Z,61.31
2023-01-25T07:42:30.796Z,63.06
2023-01-25T07:43:36.401Z,59.00
2023-01-25T07:44:42.211Z,60.56
2023-01-25T07:45:47.854Z,64.00
2023-01-25T07:46:58.148Z,62.38
2023-01-25T07:48:08.282Z,63.73
2023-01-25T07:49:17.171Z,63.40
2023-01-25T07:50:44.813Z,65.27
2023-01-25T07:51:29.648Z,52.31
2023-01-25T07:53:42.313Z,58.87
2023-01-25T07:56:29.787Z,61.13
2023-01-25T07:57:33.944Z,56.00
2023-01-25T07:58:38.424Z,59.33
2023-01-25T07:59:43.186Z,56.00
2023-01-25T08:00:50.723Z,58.75
2023-01-25T08:01:57.433Z,58.93
2023-01-25T08:03:03.048Z,59.63
2023-01-25T08:04:07.960Z,59.00
2023-01-25T08:06:00.535Z,60.12
2023-01-25T08:06:20.348Z,64.00
2023-01-25T08:07:35.411Z,59.73
2023-01-25T08:08:39.311Z,62.00
2023-01-25T08:10:57.355Z,60.31
2023-01-25T08:11:28.687Z,56.13
2023-01-25T08:12:30.434Z,59.87
2023-01-25T08:13:17.398Z,59.38
2023-01-25T08:14:28.113Z,66.13
2023-01-25T08:15:32.561Z,61.80
2023-01-25T08:16:37.303Z,59.69
2023-01-25T08:17:42.957Z,60.50
2023-01-25T08:18:50.085Z,56.33
2023-01-25T08:20:00.931Z,59.13
2023-01-25T08:22:21.600Z,58.56
2023-01-25T08:23:42.771Z,58.44
2023-01-25T08:26:11.216Z,55.87
2023-01-25T08:27:16.954Z,56.07
2023-01-25T08:28:46.227Z,55.06
2023-01-25T08:29:32.020Z,55.27
2023-01-25T08:30:41.200Z,53.93
2023-01-25T08:31:49.238Z,57.33
2023-01-25T08:32:54.932Z,55.33
2023-01-25T08:34:00.007Z,55.00
2023-01-25T08:35:04.343Z,56.94
2023-01-25T08:36:11.294Z,56.94
2023-01-25T08:37:28.272Z,50.80
2023-01-25T08:38:29.150Z,52.75
2023-01-25T08:39:36.344Z,59.38
2023-01-25T08:40:45.725Z,54.50
2023-01-25T08:41:53.897Z,60.56
2023-01-25T08:44:17.926Z,50.88
2023-01-25T08:45:15.945Z,56.50
2023-01-25T08:46:25.772Z,50.38
2023-01-25T08:47:31.216Z,55.56
2023-01-25T08:48:36.109Z,52.75
2023-01-25T08:49:45.801Z,58.20
2023-01-25T08:51:04.811Z,51.56
2023-01-25T08:52:24.365Z,52.50
2023-01-25T08:54:44.823Z,54.53
2023-01-25T08:55:51.596Z,56.81
2023-01-25T08:57:29.774Z,52.60
2023-01-25T08:58:06.073Z,52.67
2023-01-25T08:59:16.484Z,54.50
2023-01-25T09:00:28.786Z,56.63
2023-01-25T09:02:00.685Z,62.13
2023-01-25T09:03:04.491Z,55.44
2023-01-25T09:03:58.138Z,56.56
2023-01-25T09:04:56.947Z,59.63
2023-01-25T09:06:02.694Z,59.87
2023-01-25T09:07:20.107Z,51.63
2023-01-25T09:08:23.465Z,58.27
2023-01-25T09:09:32.513Z,63.63
2023-01-25T09:11:09.228Z,54.60
2023-01-25T09:11:45.752Z,60.44
2023-01-25T09:12:51.405Z,52.60
2023-01-25T09:13:58.700Z,57.13
2023-01-25T09:15:03.934Z,56.06
2023-01-25T09:16:10.297Z,54.13
2023-01-25T09:21:20.487Z,56.56
2023-01-25T09:22:24.637Z,51.50
2023-01-25T09:25:29.187Z,57.69
2023-01-25T09:26:36.856Z,49.00
2023-01-25T09:31:42.213Z,54.88
2023-01-25T09:32:53.882Z,52.69
2023-01-25T09:33:58.170Z,52.50
2023-01-25T09:35:04.918Z,53.63
2023-01-25T09:36:11.411Z,49.44
2023-01-25T09:37:15.427Z,54.19
2023-01-25T09:38:19.614Z,53.56
2023-01-25T09:39:26.927Z,49.81
2023-01-25T09:40:33.962Z,54.44
2023-01-25T09:42:13.408Z,56.40
2023-01-25T09:43:20.767Z,53.31
2023-01-25T09:44:33.840Z,49.87
2023-01-25T09:59:03.003Z,58.13
2023-01-25T10:00:21.164Z,58.69
2023-01-25T10:01:38.007Z,56.87
2023-01-25T10:02:39.290Z,58.38
2023-01-25T10:15:36.195Z,52.94
2023-01-25T10:16:41.545Z,54.63
2023-01-25T10:17:26.974Z,54.75
2023-01-25T10:19:36.591Z,55.50
2023-01-25T10:20:43.649Z,49.53
2023-01-25T10:22:29.884Z,47.73
2023-01-25T10:23:09.654Z,56.27
2023-01-25T10:24:36.799Z,51.75
2023-01-25T10:25:49.503Z,54.50
2023-01-25T10:27:01.086Z,56.53
2023-01-25T10:28:49.760Z,52.44
2023-01-25T10:29:48.244Z,52.62
2023-01-25T10:31:13.128Z,53.38
2023-01-25T10:32:28.997Z,52.13
2023-01-25T10:49:01.875Z,52.73
2023-01-25T10:52:21.074Z,54.06
2023-01-25T10:53:37.394Z,58.50
2023-01-25T11:09:37.557Z,58.38
2023-01-25T11:10:44.064Z,51.00
2023-01-25T11:11:58.115Z,53.87
2023-01-25T11:13:29.369Z,54.00
2023-01-25T11:14:39.364Z,53.56
2023-01-25T11:30:12.713Z,62.88
2023-01-25T11:31:28.419Z,50.75
2023-01-25T11:32:27.420Z,58.00
2023-01-25T11:33:33.045Z,58.19
2023-01-25T11:34:37.058Z,57.81
2023-01-25T11:36:06.716Z,58.40
2023-01-25T11:37:13.772Z,60.88
2023-01-25T11:38:43.804Z,54.44
2023-01-25T11:39:43.802Z,59.44
2023-01-25T11:40:58.214Z,55.94
2023-01-25T11:42:23.916Z,54.13
2023-01-25T11:43:59.581Z,57.25
2023-01-25T11:45:26.251Z,59.19
2023-01-25T11:46:55.677Z,56.53
2023-01-25T11:48:13.275Z,57.44
2023-01-25T11:49:39.551Z,56.20
2023-01-25T11:50:58.037Z,57.07
2023-01-25T11:52:18.559Z,48.63
2023-01-25T11:53:27.213Z,64.12
2023-01-25T11:54:42.799Z,48.94
2023-01-25T11:56:04.899Z,57.81
2023-01-25T11:58:20.372Z,58.00
2023-01-25T11:59:05.210Z,53.44
2023-01-25T12:43:13.106Z,59.60
2023-01-25T12:44:26.013Z,64.06
2023-01-25T12:45:35.142Z,59.93
2023-01-25T12:48:22.472Z,62.56
2023-01-25T12:49:58.624Z,61.13
2023-01-25T12:53:23.829Z,53.56
2023-01-25T12:54:44.866Z,62.25
2023-01-25T12:55:52.345Z,58.40
2023-01-25T12:57:31.703Z,62.47
2023-01-25T12:58:51.243Z,56.94
2023-01-25T13:00:04.419Z,58.94
2023-01-25T13:01:33.259Z,62.62
2023-01-25T13:02:50.593Z,59.93
2023-01-25T13:04:22.257Z,62.06
2023-01-25T13:05:23.142Z,60.53
2023-01-25T13:06:45.721Z,62.69
2023-01-25T13:07:45.137Z,57.00
2023-01-25T13:09:06.338Z,58.75
2023-01-25T13:10:23.421Z,52.50
2023-01-25T13:11:40.831Z,62.87
2023-01-25T13:13:18.062Z,59.87
2023-01-25T13:14:50.900Z,62.93
2023-01-25T13:15:49.678Z,66.07
2023-01-25T13:17:09.903Z,62.07
2023-01-25T13:31:53.105Z,65.20
2023-01-25T13:34:25.533Z,65.44
2023-01-25T13:35:57.489Z,65.67
2023-01-25T13:36:50.429Z,58.63
2023-01-25T14:12:41.601Z,67.67
2023-01-25T14:48:28.279Z,64.19
2023-01-25T14:48:55.901Z,64.31
2023-01-25T14:50:34.384Z,59.40
2023-01-25T14:52:06.344Z,64.75
2023-01-25T14:53:15.649Z,65.62
2023-01-25T14:54:26.952Z,63.00
2023-01-25T14:55:38.359Z,64.27
2023-01-25T14:58:14.770Z,57.44
2023-01-25T15:00:18.139Z,60.88
2023-01-25T15:02:08.879Z,61.40
2023-01-25T15:03:17.604Z,63.75
2023-01-25T15:04:24.978Z,57.44
2023-01-25T15:05:44.850Z,62.93
2023-01-25T15:22:54.494Z,62.38
2023-01-25T15:23:57.070Z,60.00
2023-01-25T15:25:23.788Z,64.87
2023-01-25T15:26:26.936Z,66.19
2023-01-25T15:28:08.141Z,68.80
2023-01-25T15:28:51.979Z,67.13
2023-01-25T15:34:55.350Z,66.87
2023-01-25T15:37:09.468Z,65.53
2023-01-25T15:38:29.705Z,65.33
2023-01-25T15:39:26.093Z,66.80
2023-01-25T15:40:51.806Z,63.27
2023-01-25T15:41:42.812Z,68.87
2023-01-25T15:43:05.757Z,63.93
2023-01-25T15:43:55.928Z,64.44
2023-01-25T15:45:01.567Z,64.33
2023-01-25T15:46:11.654Z,64.27
2023-01-25T15:48:09.354Z,65.87
2023-01-25T15:48:34.484Z,63.07
2023-01-25T15:49:40.859Z,63.27
2023-01-25T15:50:45.405Z,67.56
2023-01-25T15:52:01.906Z,68.25
2023-01-25T15:53:17.406Z,65.67
2023-01-25T15:54:18.117Z,68.67
2023-01-25T15:55:26.381Z,66.19
2023-01-25T16:00:43.093Z,57.67
2023-01-25T16:01:49.782Z,58.69
2023-01-25T16:02:53.831Z,57.62
2023-01-25T16:04:08.350Z,56.81
2023-01-25T16:05:17.901Z,59.19
2023-01-25T16:06:26.361Z,61.13
2023-01-25T16:07:31.652Z,60.00
2023-01-25T16:08:38.896Z,60.00
2023-01-25T16:09:47.625Z,59.67
2023-01-25T16:10:51.862Z,59.40
2023-01-25T16:11:59.566Z,59.20
2023-01-25T16:13:08.429Z,59.13
2023-01-25T16:14:11.541Z,55.31
2023-01-25T16:15:17.828Z,63.73
2023-01-25T16:16:24.384Z,64.00
2023-01-25T16:17:33.424Z,58.80
2023-01-25T16:18:40.515Z,57.87
2023-01-25T16:19:51.294Z,63.07
2023-01-25T16:21:04.177Z,61.63
2023-01-25T16:22:11.569Z,58.47
2023-01-25T16:23:18.365Z,62.19
2023-01-25T16:24:25.672Z,61.33
2023-01-25T16:26:19.173Z,59.93
2023-01-25T16:28:16.076Z,62.88
2023-01-25T16:28:37.625Z,69.53
2023-01-25T16:29:22.251Z,65.40
2023-01-25T16:30:29.857Z,48.80
2023-01-25T16:31:35.826Z,61.69
2023-01-25T16:33:03.281Z,63.20
2023-01-25T16:34:20.561Z,60.67
2023-01-25T16:35:22.792Z,60.20
2023-01-25T16:36:31.251Z,62.62
2023-01-25T16:37:36.995Z,60.40
2023-01-25T16:38:47.980Z,52.13
2023-01-25T16:39:58.450Z,59.33
2023-01-25T16:41:05.438Z,63.25
2023-01-25T16:42:08.317Z,62.47
2023-01-25T16:43:21.845Z,59.69
2023-01-25T16:44:27.619Z,57.94
2023-01-25T16:45:46.144Z,56.56
2023-01-25T16:46:35.686Z,61.53
2023-01-25T16:47:52.265Z,58.80
2023-01-25T16:48:51.155Z,61.67
2023-01-25T16:51:07.412Z,57.19
2023-01-25T16:51:38.720Z,59.00
2023-01-25T16:52:13.151Z,56.94
2023-01-25T16:53:18.782Z,62.75
2023-01-25T16:54:29.290Z,60.81
2023-01-25T16:55:36.676Z,63.87
2023-01-25T16:56:45.306Z,55.00
2023-01-25T16:57:54.009Z,61.00
2023-01-25T16:59:03.577Z,65.80
2023-01-25T17:00:13.265Z,60.67
2023-01-25T17:01:19.355Z,59.73
2023-01-25T17:02:24.802Z,56.06
2023-01-25T17:03:31.708Z,59.13
2023-01-25T17:04:40.470Z,62.40
2023-01-25T17:05:41.621Z,60.33
2023-01-25T17:06:55.106Z,60.27
2023-01-25T17:07:59.162Z,61.81
2023-01-25T17:09:20.645Z,53.06
2023-01-25T17:10:28.239Z,60.80
2023-01-25T17:11:24.140Z,59.44
2023-01-25T17:12:29.747Z,65.33
2023-01-25T17:13:41.098Z,63.06
2023-01-25T17:15:50.634Z,66.07
2023-01-25T17:15:58.380Z,65.69
2023-01-25T17:18:16.819Z,64.40
2023-01-25T17:19:25.316Z,68.20
2023-01-25T17:20:40.489Z,64.13
2023-01-25T17:23:21.270Z,63.27
2023-01-25T17:24:26.682Z,66.87
2023-01-25T17:25:40.464Z,64.31
2023-01-25T17:27:51.627Z,65.60
2023-01-25T17:29:49.635Z,62.94
2023-01-25T17:30:11.048Z,57.25
2023-01-25T17:31:36.246Z,65.33
2023-01-25T17:32:34.170Z,63.75
2023-01-25T17:33:41.513Z,63.20
2023-01-25T17:34:54.011Z,64.40
2023-01-25T17:36:13.850Z,61.25
2023-01-25T17:37:22.123Z,63.25
2023-01-25T17:38:20.123Z,59.44
2023-01-25T17:39:26.864Z,62.13
2023-01-25T17:41:25.522Z,67.00
2023-01-25T17:41:50.700Z,63.63
2023-01-25T17:42:56.385Z,62.13
2023-01-25T17:57:25.329Z,62.80
2023-01-25T17:58:29.901Z,61.13
2023-01-25T17:59:35.733Z,60.94
2023-01-25T18:00:48.919Z,62.44
2023-01-25T18:01:53.038Z,62.00
2023-01-25T18:02:59.057Z,58.27
2023-01-25T22:23:38.798Z,58.87
2023-01-25T22:24:42.701Z,57.19
2023-01-25T22:25:46.679Z,58.60
2023-01-25T22:26:59.766Z,61.47
2023-01-25T22:28:05.009Z,57.50
2023-01-25T22:29:09.554Z,53.20
2023-01-25T22:30:14.223Z,54.56
2023-01-25T22:31:21.687Z,53.87
2023-01-25T22:32:25.936Z,54.50
2023-01-25T22:33:30.154Z,52.44
2023-01-25T22:34:34.110Z,59.00
2023-01-25T22:35:38.163Z,55.81
2023-01-25T22:36:42.192Z,54.81
2023-01-25T22:37:46.275Z,57.25
2023-01-25T22:38:51.365Z,58.31
2023-01-25T22:39:55.402Z,53.19
2023-01-25T22:41:08.578Z,56.73
2023-01-25T22:42:12.745Z,57.87
2023-01-25T22:43:16.715Z,57.00
2023-01-25T22:44:20.723Z,53.87
2023-01-25T22:45:24.632Z,59.75
2023-01-25T22:46:30.209Z,59.53
2023-01-25T22:47:34.119Z,50.00
2023-01-25T22:48:38.096Z,57.94
2023-01-25T22:49:42.054Z,57.00
2023-01-25T22:50:46.221Z,53.25
2023-01-25T22:51:50.268Z,57.50
2023-01-25T22:52:54.263Z,56.06
2023-01-25T22:53:59.830Z,59.60
2023-01-25T22:55:03.898Z,55.12
2023-01-25T22:56:16.475Z,54.53
2023-01-25T22:57:20.673Z,59.19
2023-01-25T22:58:24.820Z,58.13
2023-01-25T22:59:28.747Z,51.80
2023-01-25T23:00:32.837Z,53.69
2023-01-25T23:01:36.943Z,55.75
2023-01-25T23:02:40.999Z,56.33
2023-01-25T23:03:46.080Z,58.06
2023-01-25T23:04:50.177Z,56.07
2023-01-25T23:06:05.531Z,46.53
2023-01-25T23:07:09.511Z,52.56
2023-01-25T23:08:13.518Z,56.56
2023-01-25T23:09:17.539Z,56.25
2023-01-25T23:10:21.587Z,56.31
2023-01-25T23:11:26.584Z,57.25
2023-01-25T23:12:30.566Z,59.73
2023-01-25T23:13:34.817Z,54.06
2023-01-25T23:14:38.879Z,56.25
2023-01-25T23:15:43.848Z,57.33
2023-01-25T23:16:48.502Z,54.69
2023-01-25T23:17:52.511Z,52.19
2023-01-25T23:18:57.016Z,49.00
2023-01-25T23:20:01.035Z,54.88
2023-01-25T23:21:05.805Z,54.94
2023-01-25T23:22:09.701Z,57.25
2023-01-25T23:23:13.741Z,58.81
2023-01-25T23:24:17.857Z,54.94
2023-01-25T23:25:22.455Z,52.06
2023-01-25T23:26:27.075Z,56.31
2023-01-25T23:27:31.072Z,54.81
2023-01-25T23:28:35.174Z,54.81
2023-01-25T23:29:39.226Z,55.38
2023-01-25T23:30:43.323Z,57.13
2023-01-25T23:31:47.358Z,59.25
2023-01-25T23:32:51.344Z,53.13
2023-01-25T23:33:58.031Z,57.50
2023-01-25T23:35:02.052Z,59.00
2023-01-25T23:36:11.115Z,56.25
2023-01-25T23:37:16.929Z,59.40
2023-01-25T23:38:20.744Z,59.87
2023-01-25T23:39:24.722Z,53.38
2023-01-25T23:40:28.682Z,59.47
2023-01-25T23:41:33.071Z,56.19
2023-01-25T23:42:37.032Z,53.69
2023-01-25T23:43:42.301Z,55.12
2023-01-25T23:44:46.303Z,53.25
2023-01-25T23:45:50.339Z,53.00
2023-01-25T23:46:54.351Z,57.31
2023-01-25T23:47:58.366Z,54.80
2023-01-25T23:49:02.347Z,48.06
2023-01-25T23:50:07.252Z,58.07
2023-01-25T23:51:12.565Z,55.81
2023-01-25T23:52:16.584Z,54.50
2023-01-25T23:53:21.207Z,51.73
2023-01-25T23:54:25.177Z,55.94
2023-01-25T23:55:29.147Z,52.81
2023-01-25T23:56:33.162Z,55.47
2023-01-25T23:57:37.168Z,53.19
2023-01-25T23:58:41.865Z,56.31
2023-01-25T23:59:45.877Z,56.94
